sensor_id;sensor_type;location;lat;lon;timestamp;P1;durP1;ratioP1;P2;durP2;ratioP2
26588;SDS011;14235;48.532;8.722;2022-08-19T00:01:12;13.40;;;12.30;;
26588;SDS011;14235;48.532;8.722;2022-08-19T00:03:38;13.05;;;11.95;;
26588;SDS011;14235;48.532;8.722;2022-08-19T00:06:04;13.00;;;11.93;;
26588;SDS011;14235;48.532;8.722;2022-08-19T00:08:30;13.27;;;12.15;;
26588;SDS011;14235;48.532;8.722;2022-08-19T00:10:57;13.80;;;12.63;;
26588;SDS011;14235;48.532;8.722;2022-08-19T00:13:23;13.80;;;12.68;;
26588;SDS011;14235;48.532;8.722;2022-08-19T00:15:49;13.40;;;12.30;;
26588;SDS011;14235;48.532;8.722;2022-08-19T00:18:15;12.77;;;11.68;;
26588;SDS011;14235;48.532;8.722;2022-08-19T00:20:41;13.13;;;12.05;;
26588;SDS011;14235;48.532;8.722;2022-08-19T00:23:07;13.57;;;12.20;;
26588;SDS011;14235;48.532;8.722;2022-08-19T00:25:33;13.25;;;12.18;;
26588;SDS011;14235;48.532;8.722;2022-08-19T00:27:59;14.07;;;12.88;;
26588;SDS011;14235;48.532;8.722;2022-08-19T00:30:25;13.80;;;12.68;;
26588;SDS011;14235;48.532;8.722;2022-08-19T00:32:52;14.43;;;13.02;;
26588;SDS011;14235;48.532;8.722;2022-08-19T00:35:48;14.80;;;13.50;;
26588;SDS011;14235;48.532;8.722;2022-08-19T00:38:54;13.48;;;12.38;;
26588;SDS011;14235;48.532;8.722;2022-08-19T00:41:21;13.60;;;12.40;;
26588;SDS011;14235;48.532;8.722;2022-08-19T00:44:02;12.93;;;11.63;;
26588;SDS011;14235;48.532;8.722;2022-08-19T00:46:29;13.48;;;12.07;;
26588;SDS011;14235;48.532;8.722;2022-08-19T00:48:56;12.95;;;11.85;;
26588;SDS011;14235;48.532;8.722;2022-08-19T00:51:23;14.00;;;12.80;;
26588;SDS011;14235;48.532;8.722;2022-08-19T00:54:01;14.73;;;13.32;;
26588;SDS011;14235;48.532;8.722;2022-08-19T00:56:28;13.70;;;12.52;;
26588;SDS011;14235;48.532;8.722;2022-08-19T00:58:56;13.23;;;12.13;;
26588;SDS011;14235;48.532;8.722;2022-08-19T01:01:23;12.43;;;11.43;;
26588;SDS011;14235;48.532;8.722;2022-08-19T01:03:48;13.57;;;12.38;;
26588;SDS011;14235;48.532;8.722;2022-08-19T01:06:14;13.65;;;12.55;;
26588;SDS011;14235;48.532;8.722;2022-08-19T01:08:41;13.32;;;12.05;;
26588;SDS011;14235;48.532;8.722;2022-08-19T01:11:07;12.98;;;11.98;;
26588;SDS011;14235;48.532;8.722;2022-08-19T01:13:33;13.73;;;12.52;;
26588;SDS011;14235;48.532;8.722;2022-08-19T01:16:02;13.25;;;12.05;;
26588;SDS011;14235;48.532;8.722;2022-08-19T01:18:36;13.25;;;12.05;;
26588;SDS011;14235;48.532;8.722;2022-08-19T01:21:08;13.90;;;12.65;;
26588;SDS011;14235;48.532;8.722;2022-08-19T01:23:40;13.73;;;12.43;;
26588;SDS011;14235;48.532;8.722;2022-08-19T01:26:13;14.55;;;13.25;;
26588;SDS011;14235;48.532;8.722;2022-08-19T01:28:40;13.43;;;12.23;;
26588;SDS011;14235;48.532;8.722;2022-08-19T01:31:12;13.55;;;12.32;;
26588;SDS011;14235;48.532;8.722;2022-08-19T01:33:39;13.50;;;12.30;;
26588;SDS011;14235;48.532;8.722;2022-08-19T01:36:06;14.20;;;12.90;;
26588;SDS011;14235;48.532;8.722;2022-08-19T01:38:35;15.05;;;13.65;;
26588;SDS011;14235;48.532;8.722;2022-08-19T01:41:04;13.35;;;12.23;;
26588;SDS011;14235;48.532;8.722;2022-08-19T01:43:30;13.55;;;12.45;;
26588;SDS011;14235;48.532;8.722;2022-08-19T01:45:56;14.80;;;13.32;;
26588;SDS011;14235;48.532;8.722;2022-08-19T01:48:22;15.25;;;13.93;;
26588;SDS011;14235;48.532;8.722;2022-08-19T01:50:48;14.73;;;13.45;;
26588;SDS011;14235;48.532;8.722;2022-08-19T01:53:14;14.95;;;13.55;;
26588;SDS011;14235;48.532;8.722;2022-08-19T01:55:40;14.15;;;12.85;;
26588;SDS011;14235;48.532;8.722;2022-08-19T01:58:08;14.38;;;13.07;;
26588;SDS011;14235;48.532;8.722;2022-08-19T02:00:46;15.43;;;14.02;;
26588;SDS011;14235;48.532;8.722;2022-08-19T02:03:12;15.32;;;13.77;;
26588;SDS011;14235;48.532;8.722;2022-08-19T02:05:38;15.55;;;14.05;;
26588;SDS011;14235;48.532;8.722;2022-08-19T02:08:05;15.75;;;14.25;;
26588;SDS011;14235;48.532;8.722;2022-08-19T02:10:31;16.88;;;15.18;;
26588;SDS011;14235;48.532;8.722;2022-08-19T02:12:57;17.60;;;15.90;;
26588;SDS011;14235;48.532;8.722;2022-08-19T02:15:22;16.75;;;15.15;;
26588;SDS011;14235;48.532;8.722;2022-08-19T02:17:49;16.83;;;15.27;;
26588;SDS011;14235;48.532;8.722;2022-08-19T02:20:15;17.00;;;15.45;;
26588;SDS011;14235;48.532;8.722;2022-08-19T02:22:41;17.20;;;15.48;;
26588;SDS011;14235;48.532;8.722;2022-08-19T02:25:08;16.85;;;15.20;;
26588;SDS011;14235;48.532;8.722;2022-08-19T02:27:35;19.25;;;16.50;;
26588;SDS011;14235;48.532;8.722;2022-08-19T02:30:01;17.38;;;15.68;;
26588;SDS011;14235;48.532;8.722;2022-08-19T02:32:27;16.67;;;15.13;;
26588;SDS011;14235;48.532;8.722;2022-08-19T02:34:55;16.83;;;15.30;;
26588;SDS011;14235;48.532;8.722;2022-08-19T02:37:20;17.65;;;15.95;;
26588;SDS011;14235;48.532;8.722;2022-08-19T02:40:05;17.73;;;16.08;;
26588;SDS011;14235;48.532;8.722;2022-08-19T02:42:31;18.52;;;16.73;;
26588;SDS011;14235;48.532;8.722;2022-08-19T02:44:57;18.27;;;16.38;;
26588;SDS011;14235;48.532;8.722;2022-08-19T02:47:22;18.23;;;16.42;;
26588;SDS011;14235;48.532;8.722;2022-08-19T02:49:48;17.70;;;16.00;;
26588;SDS011;14235;48.532;8.722;2022-08-19T02:52:14;17.98;;;16.30;;
26588;SDS011;14235;48.532;8.722;2022-08-19T02:54:40;18.15;;;16.38;;
26588;SDS011;14235;48.532;8.722;2022-08-19T02:57:07;18.98;;;16.85;;
26588;SDS011;14235;48.532;8.722;2022-08-19T02:59:33;18.77;;;16.83;;
26588;SDS011;14235;48.532;8.722;2022-08-19T03:01:58;17.88;;;16.13;;
26588;SDS011;14235;48.532;8.722;2022-08-19T03:04:24;18.05;;;16.25;;
26588;SDS011;14235;48.532;8.722;2022-08-19T03:06:50;18.42;;;16.45;;
26588;SDS011;14235;48.532;8.722;2022-08-19T03:09:16;19.60;;;17.70;;
26588;SDS011;14235;48.532;8.722;2022-08-19T03:11:43;18.95;;;16.73;;
26588;SDS011;14235;48.532;8.722;2022-08-19T03:14:08;18.40;;;16.48;;
26588;SDS011;14235;48.532;8.722;2022-08-19T03:16:40;18.50;;;16.58;;
26588;SDS011;14235;48.532;8.722;2022-08-19T03:19:07;18.05;;;16.25;;
26588;SDS011;14235;48.532;8.722;2022-08-19T03:21:33;17.83;;;16.23;;
26588;SDS011;14235;48.532;8.722;2022-08-19T03:24:00;18.70;;;16.85;;
26588;SDS011;14235;48.532;8.722;2022-08-19T03:26:28;18.83;;;16.52;;
26588;SDS011;14235;48.532;8.722;2022-08-19T03:28:54;18.70;;;16.90;;
26588;SDS011;14235;48.532;8.722;2022-08-19T03:31:21;19.13;;;17.23;;
26588;SDS011;14235;48.532;8.722;2022-08-19T03:33:48;17.50;;;15.77;;
26588;SDS011;14235;48.532;8.722;2022-08-19T03:36:17;18.27;;;16.58;;
26588;SDS011;14235;48.532;8.722;2022-08-19T03:38:46;18.17;;;16.27;;
26588;SDS011;14235;48.532;8.722;2022-08-19T03:41:15;18.35;;;16.42;;
26588;SDS011;14235;48.532;8.722;2022-08-19T03:43:43;19.30;;;17.40;;
26588;SDS011;14235;48.532;8.722;2022-08-19T03:46:12;18.70;;;16.30;;
26588;SDS011;14235;48.532;8.722;2022-08-19T03:48:40;17.70;;;15.90;;
26588;SDS011;14235;48.532;8.722;2022-08-19T03:51:07;17.80;;;16.10;;
26588;SDS011;14235;48.532;8.722;2022-08-19T03:53:40;18.92;;;17.02;;
26588;SDS011;14235;48.532;8.722;2022-08-19T03:56:05;19.65;;;17.48;;
26588;SDS011;14235;48.532;8.722;2022-08-19T03:58:35;19.27;;;17.38;;
26588;SDS011;14235;48.532;8.722;2022-08-19T04:01:02;18.05;;;16.35;;
26588;SDS011;14235;48.532;8.722;2022-08-19T04:03:32;20.13;;;16.90;;
26588;SDS011;14235;48.532;8.722;2022-08-19T04:05:57;19.00;;;17.20;;
26588;SDS011;14235;48.532;8.722;2022-08-19T04:08:23;19.33;;;17.42;;
26588;SDS011;14235;48.532;8.722;2022-08-19T04:10:48;18.75;;;16.85;;
26588;SDS011;14235;48.532;8.722;2022-08-19T04:13:15;19.52;;;17.35;;
26588;SDS011;14235;48.532;8.722;2022-08-19T04:15:42;17.60;;;15.90;;
26588;SDS011;14235;48.532;8.722;2022-08-19T04:18:10;18.85;;;16.95;;
26588;SDS011;14235;48.532;8.722;2022-08-19T04:20:43;18.83;;;17.00;;
26588;SDS011;14235;48.532;8.722;2022-08-19T04:23:10;18.60;;;16.83;;
26588;SDS011;14235;48.532;8.722;2022-08-19T04:25:37;19.67;;;17.77;;
26588;SDS011;14235;48.532;8.722;2022-08-19T04:28:08;18.77;;;17.08;;
26588;SDS011;14235;48.532;8.722;2022-08-19T04:30:42;18.70;;;16.83;;
26588;SDS011;14235;48.532;8.722;2022-08-19T04:33:11;19.67;;;17.67;;
26588;SDS011;14235;48.532;8.722;2022-08-19T04:35:41;19.55;;;17.65;;
26588;SDS011;14235;48.532;8.722;2022-08-19T04:38:11;18.52;;;16.77;;
26588;SDS011;14235;48.532;8.722;2022-08-19T04:40:43;19.83;;;17.92;;
26588;SDS011;14235;48.532;8.722;2022-08-19T04:43:29;19.40;;;17.52;;
26588;SDS011;14235;48.532;8.722;2022-08-19T04:45:58;19.40;;;17.50;;
26588;SDS011;14235;48.532;8.722;2022-08-19T04:48:25;19.95;;;17.95;;
26588;SDS011;14235;48.532;8.722;2022-08-19T04:50:53;18.73;;;17.00;;
26588;SDS011;14235;48.532;8.722;2022-08-19T04:53:24;19.45;;;17.38;;
26588;SDS011;14235;48.532;8.722;2022-08-19T04:55:53;18.83;;;16.92;;
26588;SDS011;14235;48.532;8.722;2022-08-19T04:58:21;18.70;;;16.83;;
26588;SDS011;14235;48.532;8.722;2022-08-19T05:00:52;19.80;;;17.90;;
26588;SDS011;14235;48.532;8.722;2022-08-19T05:03:27;19.63;;;17.65;;
26588;SDS011;14235;48.532;8.722;2022-08-19T05:06:08;18.50;;;16.80;;
26588;SDS011;14235;48.532;8.722;2022-08-19T05:08:36;19.02;;;17.13;;
26588;SDS011;14235;48.532;8.722;2022-08-19T05:11:10;20.13;;;18.02;;
26588;SDS011;14235;48.532;8.722;2022-08-19T05:13:41;20.58;;;17.75;;
26588;SDS011;14235;48.532;8.722;2022-08-19T05:16:08;21.10;;;18.85;;
26588;SDS011;14235;48.532;8.722;2022-08-19T05:18:35;21.25;;;18.33;;
26588;SDS011;14235;48.532;8.722;2022-08-19T05:21:19;20.90;;;18.90;;
26588;SDS011;14235;48.532;8.722;2022-08-19T05:24:04;20.67;;;18.67;;
26588;SDS011;14235;48.532;8.722;2022-08-19T05:26:34;20.48;;;18.20;;
26588;SDS011;14235;48.532;8.722;2022-08-19T05:29:01;20.38;;;18.45;;
26588;SDS011;14235;48.532;8.722;2022-08-19T05:31:27;20.23;;;18.33;;
26588;SDS011;14235;48.532;8.722;2022-08-19T05:33:52;20.77;;;18.73;;
26588;SDS011;14235;48.532;8.722;2022-08-19T05:36:18;22.00;;;19.80;;
26588;SDS011;14235;48.532;8.722;2022-08-19T05:38:44;23.60;;;20.33;;
26588;SDS011;14235;48.532;8.722;2022-08-19T05:41:12;23.13;;;20.73;;
26588;SDS011;14235;48.532;8.722;2022-08-19T05:43:39;22.30;;;20.10;;
26588;SDS011;14235;48.532;8.722;2022-08-19T05:46:05;21.75;;;19.63;;
26588;SDS011;14235;48.532;8.722;2022-08-19T05:48:35;22.73;;;20.55;;
26588;SDS011;14235;48.532;8.722;2022-08-19T05:51:04;22.70;;;20.60;;
26588;SDS011;14235;48.532;8.722;2022-08-19T05:53:34;21.83;;;19.83;;
26588;SDS011;14235;48.532;8.722;2022-08-19T05:56:07;20.27;;;18.35;;
26588;SDS011;14235;48.532;8.722;2022-08-19T05:58:35;22.38;;;20.25;;
26588;SDS011;14235;48.532;8.722;2022-08-19T06:01:01;21.27;;;19.20;;
26588;SDS011;14235;48.532;8.722;2022-08-19T06:03:31;21.33;;;19.20;;
26588;SDS011;14235;48.532;8.722;2022-08-19T06:05:59;22.40;;;20.20;;
26588;SDS011;14235;48.532;8.722;2022-08-19T06:08:27;21.40;;;19.17;;
26588;SDS011;14235;48.532;8.722;2022-08-19T06:13:40;21.40;;;19.30;;
26588;SDS011;14235;48.532;8.722;2022-08-19T06:16:06;21.63;;;19.38;;
26588;SDS011;14235;48.532;8.722;2022-08-19T06:18:33;21.63;;;19.25;;
26588;SDS011;14235;48.532;8.722;2022-08-19T06:20:59;22.77;;;19.58;;
26588;SDS011;14235;48.532;8.722;2022-08-19T06:23:29;22.35;;;20.25;;
26588;SDS011;14235;48.532;8.722;2022-08-19T06:25:55;20.90;;;18.80;;
26588;SDS011;14235;48.532;8.722;2022-08-19T06:28:21;22.30;;;20.02;;
26588;SDS011;14235;48.532;8.722;2022-08-19T06:30:48;22.27;;;20.15;;
26588;SDS011;14235;48.532;8.722;2022-08-19T06:33:14;21.55;;;19.55;;
26588;SDS011;14235;48.532;8.722;2022-08-19T06:35:41;21.77;;;19.60;;
26588;SDS011;14235;48.532;8.722;2022-08-19T06:38:10;21.83;;;19.73;;
26588;SDS011;14235;48.532;8.722;2022-08-19T06:40:36;22.55;;;20.38;;
26588;SDS011;14235;48.532;8.722;2022-08-19T06:43:03;22.15;;;20.00;;
26588;SDS011;14235;48.532;8.722;2022-08-19T06:45:32;22.20;;;20.00;;
26588;SDS011;14235;48.532;8.722;2022-08-19T06:47:57;20.58;;;18.75;;
26588;SDS011;14235;48.532;8.722;2022-08-19T06:50:23;22.00;;;19.85;;
26588;SDS011;14235;48.532;8.722;2022-08-19T06:52:50;21.45;;;19.35;;
26588;SDS011;14235;48.532;8.722;2022-08-19T06:55:19;21.73;;;19.73;;
26588;SDS011;14235;48.532;8.722;2022-08-19T06:57:45;21.83;;;19.73;;
26588;SDS011;14235;48.532;8.722;2022-08-19T07:00:12;23.00;;;20.60;;
26588;SDS011;14235;48.532;8.722;2022-08-19T07:02:40;23.42;;;21.23;;
26588;SDS011;14235;48.532;8.722;2022-08-19T07:05:06;23.13;;;20.95;;
26588;SDS011;14235;48.532;8.722;2022-08-19T07:07:33;21.67;;;19.58;;
26588;SDS011;14235;48.532;8.722;2022-08-19T07:09:59;23.77;;;21.38;;
26588;SDS011;14235;48.532;8.722;2022-08-19T07:12:26;23.42;;;21.30;;
26588;SDS011;14235;48.532;8.722;2022-08-19T07:14:57;23.10;;;20.73;;
26588;SDS011;14235;48.532;8.722;2022-08-19T07:17:23;23.42;;;21.13;;
26588;SDS011;14235;48.532;8.722;2022-08-19T07:19:49;23.08;;;20.83;;
26588;SDS011;14235;48.532;8.722;2022-08-19T07:22:15;24.13;;;21.85;;
26588;SDS011;14235;48.532;8.722;2022-08-19T07:24:42;23.27;;;20.98;;
26588;SDS011;14235;48.532;8.722;2022-08-19T07:27:08;23.77;;;21.60;;
26588;SDS011;14235;48.532;8.722;2022-08-19T07:29:35;23.10;;;20.80;;
26588;SDS011;14235;48.532;8.722;2022-08-19T07:32:02;24.35;;;21.85;;
26588;SDS011;14235;48.532;8.722;2022-08-19T07:34:30;24.02;;;21.58;;
26588;SDS011;14235;48.532;8.722;2022-08-19T07:37:13;23.55;;;21.15;;
26588;SDS011;14235;48.532;8.722;2022-08-19T07:39:38;22.05;;;19.95;;
26588;SDS011;14235;48.532;8.722;2022-08-19T07:42:07;22.17;;;20.17;;
26588;SDS011;14235;48.532;8.722;2022-08-19T07:44:35;23.15;;;20.95;;
26588;SDS011;14235;48.532;8.722;2022-08-19T07:47:01;22.60;;;20.45;;
26588;SDS011;14235;48.532;8.722;2022-08-19T07:49:27;21.90;;;19.88;;
26588;SDS011;14235;48.532;8.722;2022-08-19T07:52:04;23.23;;;21.02;;
26588;SDS011;14235;48.532;8.722;2022-08-19T07:54:32;22.00;;;19.95;;
26588;SDS011;14235;48.532;8.722;2022-08-19T07:57:00;23.25;;;20.98;;
26588;SDS011;14235;48.532;8.722;2022-08-19T07:59:27;24.08;;;21.83;;
26588;SDS011;14235;48.532;8.722;2022-08-19T08:01:53;23.40;;;21.17;;
26588;SDS011;14235;48.532;8.722;2022-08-19T08:04:20;23.95;;;21.70;;
26588;SDS011;14235;48.532;8.722;2022-08-19T08:07:05;23.92;;;21.52;;
26588;SDS011;14235;48.532;8.722;2022-08-19T08:09:51;23.60;;;21.40;;
26588;SDS011;14235;48.532;8.722;2022-08-19T08:12:19;23.83;;;21.33;;
26588;SDS011;14235;48.532;8.722;2022-08-19T08:14:51;23.90;;;21.60;;
26588;SDS011;14235;48.532;8.722;2022-08-19T08:17:19;21.13;;;19.20;;
26588;SDS011;14235;48.532;8.722;2022-08-19T08:19:46;21.77;;;19.73;;
26588;SDS011;14235;48.532;8.722;2022-08-19T08:22:15;21.60;;;19.63;;
26588;SDS011;14235;48.532;8.722;2022-08-19T08:25:03;20.88;;;18.83;;
26588;SDS011;14235;48.532;8.722;2022-08-19T08:27:37;21.10;;;18.92;;
26588;SDS011;14235;48.532;8.722;2022-08-19T08:30:06;20.92;;;19.02;;
26588;SDS011;14235;48.532;8.722;2022-08-19T08:32:34;19.27;;;17.38;;
26588;SDS011;14235;48.532;8.722;2022-08-19T08:35:02;17.42;;;15.82;;
26588;SDS011;14235;48.532;8.722;2022-08-19T08:37:29;17.90;;;16.30;;
26588;SDS011;14235;48.532;8.722;2022-08-19T08:39:55;16.80;;;15.10;;
26588;SDS011;14235;48.532;8.722;2022-08-19T08:42:22;16.17;;;14.57;;
26588;SDS011;14235;48.532;8.722;2022-08-19T08:44:59;15.52;;;14.23;;
26588;SDS011;14235;48.532;8.722;2022-08-19T08:47:36;14.55;;;13.32;;
26588;SDS011;14235;48.532;8.722;2022-08-19T08:50:06;14.73;;;13.32;;
26588;SDS011;14235;48.532;8.722;2022-08-19T08:52:39;13.95;;;12.65;;
26588;SDS011;14235;48.532;8.722;2022-08-19T08:55:14;14.93;;;13.52;;
26588;SDS011;14235;48.532;8.722;2022-08-19T08:57:44;15.00;;;13.60;;
26588;SDS011;14235;48.532;8.722;2022-08-19T09:00:19;14.43;;;13.13;;
26588;SDS011;14235;48.532;8.722;2022-08-19T09:02:46;13.65;;;12.57;;
26588;SDS011;14235;48.532;8.722;2022-08-19T09:05:12;13.82;;;12.50;;
26588;SDS011;14235;48.532;8.722;2022-08-19T09:07:43;13.63;;;12.43;;
26588;SDS011;14235;48.532;8.722;2022-08-19T09:10:32;12.90;;;11.80;;
26588;SDS011;14235;48.532;8.722;2022-08-19T09:13:17;13.10;;;11.88;;
26588;SDS011;14235;48.532;8.722;2022-08-19T09:15:58;12.70;;;11.60;;
26588;SDS011;14235;48.532;8.722;2022-08-19T09:18:32;13.13;;;11.88;;
26588;SDS011;14235;48.532;8.722;2022-08-19T09:21:08;11.82;;;10.60;;
26588;SDS011;14235;48.532;8.722;2022-08-19T09:23:35;12.05;;;11.05;;
26588;SDS011;14235;48.532;8.722;2022-08-19T09:26:04;12.23;;;11.13;;
26588;SDS011;14235;48.532;8.722;2022-08-19T09:28:38;12.68;;;11.48;;
26588;SDS011;14235;48.532;8.722;2022-08-19T09:31:12;12.60;;;11.40;;
26588;SDS011;14235;48.532;8.722;2022-08-19T09:33:39;12.02;;;10.90;;
26588;SDS011;14235;48.532;8.722;2022-08-19T09:36:09;11.70;;;10.77;;
26588;SDS011;14235;48.532;8.722;2022-08-19T09:38:36;12.38;;;11.27;;
26588;SDS011;14235;48.532;8.722;2022-08-19T09:41:07;11.50;;;10.60;;
26588;SDS011;14235;48.532;8.722;2022-08-19T09:43:37;11.75;;;10.85;;
26588;SDS011;14235;48.532;8.722;2022-08-19T09:46:03;12.50;;;11.40;;
26588;SDS011;14235;48.532;8.722;2022-08-19T09:48:37;11.20;;;10.20;;
26588;SDS011;14235;48.532;8.722;2022-08-19T09:51:05;11.43;;;10.52;;
26588;SDS011;14235;48.532;8.722;2022-08-19T09:53:33;11.00;;;10.00;;
26588;SDS011;14235;48.532;8.722;2022-08-19T09:55:59;10.73;;;9.93;;
26588;SDS011;14235;48.532;8.722;2022-08-19T09:58:26;10.93;;;9.85;;
26588;SDS011;14235;48.532;8.722;2022-08-19T10:00:56;10.73;;;9.85;;
26588;SDS011;14235;48.532;8.722;2022-08-19T10:03:23;10.98;;;9.88;;
26588;SDS011;14235;48.532;8.722;2022-08-19T10:05:50;10.35;;;9.27;;
26588;SDS011;14235;48.532;8.722;2022-08-19T10:08:17;10.15;;;9.35;;
26588;SDS011;14235;48.532;8.722;2022-08-19T10:10:45;9.70;;;8.68;;
26588;SDS011;14235;48.532;8.722;2022-08-19T10:13:12;9.25;;;8.55;;
26588;SDS011;14235;48.532;8.722;2022-08-19T10:15:40;10.13;;;9.13;;
26588;SDS011;14235;48.532;8.722;2022-08-19T10:18:06;12.52;;;9.43;;
26588;SDS011;14235;48.532;8.722;2022-08-19T10:20:32;9.70;;;8.82;;
26588;SDS011;14235;48.532;8.722;2022-08-19T10:22:59;9.65;;;8.95;;
26588;SDS011;14235;48.532;8.722;2022-08-19T10:25:25;9.30;;;8.50;;
26588;SDS011;14235;48.532;8.722;2022-08-19T10:27:51;9.55;;;8.77;;
26588;SDS011;14235;48.532;8.722;2022-08-19T10:30:17;10.65;;;9.75;;
26588;SDS011;14235;48.532;8.722;2022-08-19T10:32:43;9.63;;;8.73;;
26588;SDS011;14235;48.532;8.722;2022-08-19T10:35:10;11.32;;;8.90;;
26588;SDS011;14235;48.532;8.722;2022-08-19T10:37:37;9.05;;;8.15;;
26588;SDS011;14235;48.532;8.722;2022-08-19T10:40:06;8.95;;;8.15;;
26588;SDS011;14235;48.532;8.722;2022-08-19T10:42:34;8.85;;;8.15;;
26588;SDS011;14235;48.532;8.722;2022-08-19T10:45:00;9.52;;;8.70;;
26588;SDS011;14235;48.532;8.722;2022-08-19T10:47:26;10.88;;;9.98;;
26588;SDS011;14235;48.532;8.722;2022-08-19T10:49:52;11.07;;;9.57;;
26588;SDS011;14235;48.532;8.722;2022-08-19T10:52:41;9.45;;;8.70;;
26588;SDS011;14235;48.532;8.722;2022-08-19T10:55:09;9.23;;;8.52;;
26588;SDS011;14235;48.532;8.722;2022-08-19T10:57:53;9.95;;;8.95;;
26588;SDS011;14235;48.532;8.722;2022-08-19T11:00:19;9.85;;;8.95;;
26588;SDS011;14235;48.532;8.722;2022-08-19T11:02:46;9.77;;;9.05;;
26588;SDS011;14235;48.532;8.722;2022-08-19T11:05:12;9.43;;;8.52;;
26588;SDS011;14235;48.532;8.722;2022-08-19T11:07:39;8.70;;;8.05;;
26588;SDS011;14235;48.532;8.722;2022-08-19T11:10:06;8.15;;;7.45;;
26588;SDS011;14235;48.532;8.722;2022-08-19T11:12:33;8.25;;;7.53;;
26588;SDS011;14235;48.532;8.722;2022-08-19T11:14:58;7.53;;;6.95;;
26588;SDS011;14235;48.532;8.722;2022-08-19T11:17:24;7.25;;;6.75;;
26588;SDS011;14235;48.532;8.722;2022-08-19T11:19:50;7.55;;;6.95;;
26588;SDS011;14235;48.532;8.722;2022-08-19T11:22:15;6.88;;;6.40;;
26588;SDS011;14235;48.532;8.722;2022-08-19T11:24:42;8.65;;;7.15;;
26588;SDS011;14235;48.532;8.722;2022-08-19T11:27:08;7.40;;;6.82;;
26588;SDS011;14235;48.532;8.722;2022-08-19T11:29:35;7.32;;;6.45;;
26588;SDS011;14235;48.532;8.722;2022-08-19T11:32:04;7.90;;;7.25;;
26588;SDS011;14235;48.532;8.722;2022-08-19T11:34:32;8.20;;;7.50;;
26588;SDS011;14235;48.532;8.722;2022-08-19T11:36:58;7.93;;;7.30;;
26588;SDS011;14235;48.532;8.722;2022-08-19T11:39:25;8.05;;;7.45;;
26588;SDS011;14235;48.532;8.722;2022-08-19T11:41:52;7.90;;;7.25;;
26588;SDS011;14235;48.532;8.722;2022-08-19T11:44:18;7.85;;;7.15;;
26588;SDS011;14235;48.532;8.722;2022-08-19T11:46:44;8.68;;;7.88;;
26588;SDS011;14235;48.532;8.722;2022-08-19T11:49:11;7.78;;;7.07;;
26588;SDS011;14235;48.532;8.722;2022-08-19T11:51:38;7.85;;;7.05;;
26588;SDS011;14235;48.532;8.722;2022-08-19T11:54:04;8.50;;;7.70;;
26588;SDS011;14235;48.532;8.722;2022-08-19T11:56:31;7.85;;;7.30;;
26588;SDS011;14235;48.532;8.722;2022-08-19T11:58:56;8.35;;;7.72;;
26588;SDS011;14235;48.532;8.722;2022-08-19T12:01:23;8.82;;;7.65;;
26588;SDS011;14235;48.532;8.722;2022-08-19T12:03:51;7.70;;;7.20;;
26588;SDS011;14235;48.532;8.722;2022-08-19T12:06:20;8.23;;;7.43;;
26588;SDS011;14235;48.532;8.722;2022-08-19T12:08:53;9.23;;;8.30;;
26588;SDS011;14235;48.532;8.722;2022-08-19T12:11:19;8.40;;;7.80;;
26588;SDS011;14235;48.532;8.722;2022-08-19T12:13:45;8.40;;;7.80;;
26588;SDS011;14235;48.532;8.722;2022-08-19T12:16:15;8.88;;;8.15;;
26588;SDS011;14235;48.532;8.722;2022-08-19T12:18:47;8.73;;;7.82;;
26588;SDS011;14235;48.532;8.722;2022-08-19T12:21:16;9.15;;;8.45;;
26588;SDS011;14235;48.532;8.722;2022-08-19T12:23:47;8.88;;;8.18;;
26588;SDS011;14235;48.532;8.722;2022-08-19T12:26:14;8.60;;;7.88;;
26588;SDS011;14235;48.532;8.722;2022-08-19T12:28:40;8.07;;;7.47;;
26588;SDS011;14235;48.532;8.722;2022-08-19T12:31:06;7.78;;;7.07;;
26588;SDS011;14235;48.532;8.722;2022-08-19T12:33:32;7.72;;;7.13;;
26588;SDS011;14235;48.532;8.722;2022-08-19T12:36:02;7.65;;;7.05;;
26588;SDS011;14235;48.532;8.722;2022-08-19T12:38:30;7.60;;;7.00;;
26588;SDS011;14235;48.532;8.722;2022-08-19T12:40:57;7.35;;;6.80;;
26588;SDS011;14235;48.532;8.722;2022-08-19T12:43:23;7.60;;;7.10;;
26588;SDS011;14235;48.532;8.722;2022-08-19T12:45:48;7.10;;;6.50;;
26588;SDS011;14235;48.532;8.722;2022-08-19T12:48:15;7.20;;;6.70;;
26588;SDS011;14235;48.532;8.722;2022-08-19T12:50:42;7.32;;;6.88;;
26588;SDS011;14235;48.532;8.722;2022-08-19T12:53:10;7.88;;;7.18;;
26588;SDS011;14235;48.532;8.722;2022-08-19T12:55:36;7.68;;;7.07;;
26588;SDS011;14235;48.532;8.722;2022-08-19T12:58:01;8.75;;;7.97;;
26588;SDS011;14235;48.532;8.722;2022-08-19T13:00:28;8.50;;;7.90;;
26588;SDS011;14235;48.532;8.722;2022-08-19T13:02:53;9.20;;;8.50;;
26588;SDS011;14235;48.532;8.722;2022-08-19T13:05:20;8.38;;;7.78;;
26588;SDS011;14235;48.532;8.722;2022-08-19T13:07:49;10.77;;;8.70;;
26588;SDS011;14235;48.532;8.722;2022-08-19T13:10:18;8.75;;;7.90;;
26588;SDS011;14235;48.532;8.722;2022-08-19T13:12:46;9.75;;;9.05;;
26588;SDS011;14235;48.532;8.722;2022-08-19T13:15:14;8.98;;;8.30;;
26588;SDS011;14235;48.532;8.722;2022-08-19T13:17:45;8.95;;;8.15;;
26588;SDS011;14235;48.532;8.722;2022-08-19T13:20:16;8.85;;;8.18;;
26588;SDS011;14235;48.532;8.722;2022-08-19T13:22:43;8.48;;;7.93;;
26588;SDS011;14235;48.532;8.722;2022-08-19T13:25:09;9.13;;;8.43;;
26588;SDS011;14235;48.532;8.722;2022-08-19T13:27:36;8.85;;;8.15;;
26588;SDS011;14235;48.532;8.722;2022-08-19T13:30:02;9.60;;;8.77;;
26588;SDS011;14235;48.532;8.722;2022-08-19T13:32:48;9.85;;;9.15;;
26588;SDS011;14235;48.532;8.722;2022-08-19T13:35:32;9.27;;;8.57;;
26588;SDS011;14235;48.532;8.722;2022-08-19T13:37:57;9.55;;;8.73;;
26588;SDS011;14235;48.532;8.722;2022-08-19T13:40:23;9.55;;;8.85;;
26588;SDS011;14235;48.532;8.722;2022-08-19T13:42:52;9.43;;;8.82;;
26588;SDS011;14235;48.532;8.722;2022-08-19T13:45:20;10.00;;;9.20;;
26588;SDS011;14235;48.532;8.722;2022-08-19T13:47:49;10.02;;;9.23;;
26588;SDS011;14235;48.532;8.722;2022-08-19T13:50:17;9.73;;;9.02;;
26588;SDS011;14235;48.532;8.722;2022-08-19T13:52:46;9.45;;;8.75;;
26588;SDS011;14235;48.532;8.722;2022-08-19T13:55:12;10.10;;;9.40;;
26588;SDS011;14235;48.532;8.722;2022-08-19T13:57:39;9.45;;;8.75;;
26588;SDS011;14235;48.532;8.722;2022-08-19T14:00:08;9.40;;;8.80;;
26588;SDS011;14235;48.532;8.722;2022-08-19T14:02:36;9.45;;;8.75;;
26588;SDS011;14235;48.532;8.722;2022-08-19T14:05:03;9.98;;;9.10;;
26588;SDS011;14235;48.532;8.722;2022-08-19T14:07:30;9.73;;;9.05;;
26588;SDS011;14235;48.532;8.722;2022-08-19T14:09:56;9.07;;;8.43;;
26588;SDS011;14235;48.532;8.722;2022-08-19T14:12:22;9.18;;;8.43;;
26588;SDS011;14235;48.532;8.722;2022-08-19T14:14:48;10.00;;;9.20;;
26588;SDS011;14235;48.532;8.722;2022-08-19T14:17:14;9.27;;;8.57;;
26588;SDS011;14235;48.532;8.722;2022-08-19T14:19:40;9.57;;;8.77;;
26588;SDS011;14235;48.532;8.722;2022-08-19T14:22:06;8.85;;;8.15;;
26588;SDS011;14235;48.532;8.722;2022-08-19T14:24:31;8.63;;;7.93;;
26588;SDS011;14235;48.532;8.722;2022-08-19T14:26:57;8.98;;;8.38;;
26588;SDS011;14235;48.532;8.722;2022-08-19T14:29:23;8.45;;;7.82;;
26588;SDS011;14235;48.532;8.722;2022-08-19T14:31:49;9.43;;;8.63;;
26588;SDS011;14235;48.532;8.722;2022-08-19T14:34:15;9.80;;;9.02;;
26588;SDS011;14235;48.532;8.722;2022-08-19T14:36:40;8.50;;;7.88;;
26588;SDS011;14235;48.532;8.722;2022-08-19T14:39:06;9.15;;;8.35;;